Time;durP1;ratioP1;P1;durP2;ratioP2;P2;SDS_P1;SDS_P2;PMS_P1;PMS_P2;Temp;Humidity;BMP_temperature;BMP_pressure;BME280_temperature;BME280_humidity;BME280_pressure;Samples;Min_cycle;Max_cycle;Signal;HPM_P1;HPM_P2
2024/01/16 00:02:00;;;;;;;3.27;2.50;;;-0.20;89.70;;;;;;5028516;28;20446;-53
2024/01/16 00:04:29;;;;;;;5.03;2.17;;;-0.20;92.80;;;;;;5019940;28;20505;-52
2024/01/16 00:06:56;;;;;;;2.63;2.43;;;-0.20;94.00;;;;;;5021124;28;20462;-52
2024/01/16 00:09:23;;;;;;;6.17;2.90;;;-0.20;84.80;;;;;;5027197;28;20472;-53
2024/01/16 00:11:49;;;;;;;5.80;2.40;;;-0.20;85.50;;;;;;5020776;28;20475;-52
2024/01/16 00:14:16;;;;;;;9.63;3.57;;;-0.20;81.70;;;;;;5022939;28;20514;-52
2024/01/16 00:16:44;;;;;;;3.17;2.63;;;-0.20;79.40;;;;;;5015145;28;20506;-52
2024/01/16 00:19:11;;;;;;;6.23;2.70;;;-0.20;74.60;;;;;;5024571;28;20479;-53
2024/01/16 00:21:40;;;;;;;2.80;2.60;;;-0.20;66.90;;;;;;5032772;28;20493;-52
2024/01/16 00:24:06;;;;;;;3.90;2.20;;;-0.20;71.20;;;;;;5021947;28;20451;-52
2024/01/16 00:26:33;;;;;;;2.47;2.27;;;-0.20;68.20;;;;;;5024655;28;20452;-52
2024/01/16 00:29:00;;;;;;;3.93;2.10;;;-0.20;67.70;;;;;;5019370;28;20459;-53
2024/01/16 00:31:27;;;;;;;2.60;2.27;;;-0.20;63.50;;;;;;5023424;28;20545;-52
2024/01/16 00:33:55;;;;;;;5.13;1.93;;;-0.20;59.20;;;;;;5023643;28;20482;-52
2024/01/16 00:36:21;;;;;;;3.13;1.67;;;-0.50;40.90;;;;;;5031039;28;20481;-52
2024/01/16 00:38:48;;;;;;;1.70;1.60;;;-0.60;31.10;;;;;;5028597;28;20960;-54
2024/01/16 00:41:15;;;;;;;2.30;1.40;;;-0.80;99.90;;;;;;5021473;28;20522;-52
2024/01/16 00:43:42;;;;;;;1.60;1.40;;;-0.90;99.90;;;;;;5017465;28;20450;-52
2024/01/16 00:46:09;;;;;;;1.13;1.13;;;-1.10;99.90;;;;;;5027010;28;20486;-57
2024/01/16 00:48:36;;;;;;;2.73;1.43;;;-1.10;99.90;;;;;;5020721;28;20522;-57
2024/01/16 00:51:04;;;;;;;1.50;1.40;;;-1.10;99.90;;;;;;5021577;28;20925;-56
2024/01/16 00:53:31;;;;;;;4.83;1.40;;;-1.10;99.90;;;;;;5032458;28;20977;-56
2024/01/16 00:55:57;;;;;;;2.90;1.50;;;-1.20;99.90;;;;;;5026959;28;20497;-57
2024/01/16 00:58:24;;;;;;;7.83;3.27;;;-1.10;99.90;;;;;;5027657;28;21242;-58
2024/01/16 01:00:51;;;;;;;5.30;2.60;;;-1.20;99.90;;;;;;5017375;28;20967;-58
2024/01/16 01:03:17;;;;;;;4.00;2.30;;;-1.20;99.90;;;;;;5027817;28;20474;-58
2024/01/16 01:05:44;;;;;;;3.17;1.90;;;-1.20;99.90;;;;;;5016870;28;20456;-57
2024/01/16 01:08:12;;;;;;;2.37;1.87;;;-1.20;99.90;;;;;;5041039;28;20513;-56
2024/01/16 01:10:38;;;;;;;4.00;2.17;;;-1.10;99.90;;;;;;5027753;28;20450;-57
2024/01/16 01:13:05;;;;;;;3.33;1.80;;;-1.10;99.90;;;;;;5030750;28;21132;-57
2024/01/16 01:15:32;;;;;;;8.07;3.20;;;-1.20;99.90;;;;;;5020939;28;20475;-57
2024/01/16 01:17:58;;;;;;;4.90;2.40;;;-1.10;99.90;;;;;;5012516;28;20522;-56
2024/01/16 01:20:25;;;;;;;2.60;1.90;;;-1.10;99.90;;;;;;5029367;28;20467;-57
2024/01/16 01:22:52;;;;;;;5.53;2.17;;;-1.10;99.90;;;;;;5018940;28;20465;-57
2024/01/16 01:25:20;;;;;;;3.93;2.17;;;-1.10;99.90;;;;;;5027765;28;20453;-56
2024/01/16 01:27:47;;;;;;;3.20;1.90;;;-1.10;99.90;;;;;;5020515;28;20462;-57
2024/01/16 01:30:14;;;;;;;3.20;1.87;;;-1.20;99.90;;;;;;5023141;28;20532;-56
2024/01/16 01:32:40;;;;;;;3.83;1.77;;;-1.20;99.90;;;;;;5025489;28;20470;-57
2024/01/16 01:35:08;;;;;;;2.60;2.40;;;-1.20;99.90;;;;;;5020491;28;21027;-57
2024/01/16 01:37:34;;;;;;;3.43;1.90;;;-1.20;99.90;;;;;;5033256;28;20469;-58
2024/01/16 01:40:01;;;;;;;2.13;1.93;;;-1.20;99.90;;;;;;5021948;28;20831;-57
2024/01/16 01:42:29;;;;;;;2.27;2.07;;;-1.20;99.90;;;;;;5018664;28;20557;-57
2024/01/16 01:44:56;;;;;;;2.10;1.73;;;-1.10;99.90;;;;;;5012651;28;20447;-58
2024/01/16 01:47:22;;;;;;;6.30;2.37;;;-1.10;99.90;;;;;;5014346;28;20498;-57
2024/01/16 01:49:49;;;;;;;3.07;1.70;;;-1.10;99.90;;;;;;5029169;28;20490;-57
2024/01/16 01:52:16;;;;;;;4.97;1.57;;;-1.00;99.90;;;;;;5022222;28;20440;-57
2024/01/16 01:54:44;;;;;;;4.83;1.80;;;-1.10;99.90;;;;;;5026397;28;20510;-57
2024/01/16 01:57:11;;;;;;;4.77;1.97;;;-1.10;99.90;;;;;;5012303;28;20907;-57
2024/01/16 01:59:39;;;;;;;1.57;1.37;;;-1.10;99.90;;;;;;5014627;28;21011;-58
2024/01/16 02:02:06;;;;;;;1.60;1.50;;;-1.10;99.90;;;;;;5019727;28;20475;-57
2024/01/16 02:04:33;;;;;;;2.20;1.63;;;-1.10;99.90;;;;;;5020298;28;20543;-57
2024/01/16 02:07:00;;;;;;;2.40;1.37;;;-1.10;99.90;;;;;;5027794;28;20880;-57
2024/01/16 02:09:27;;;;;;;3.77;1.83;;;-1.20;99.90;;;;;;5018902;28;20456;-56
2024/01/16 02:11:53;;;;;;;1.93;1.80;;;-1.20;99.90;;;;;;5026783;28;20509;-57
2024/01/16 02:14:20;;;;;;;3.60;2.23;;;-1.10;99.90;;;;;;5012456;28;20510;-58
2024/01/16 02:16:48;;;;;;;2.10;1.93;;;-1.10;99.90;;;;;;5016174;28;20455;-56
2024/01/16 02:19:15;;;;;;;2.83;2.10;;;-1.10;99.90;;;;;;5033114;28;20944;-56
2024/01/16 02:21:47;;;;;;;3.93;2.60;;;-1.20;99.90;;;;;;5020721;28;20451;-57
2024/01/16 02:24:16;;;;;;;39.90;16.90;;;-1.30;99.90;;;;;;5031121;28;20439;-57
2024/01/16 02:26:43;;;;;;;46.23;19.37;;;-1.40;99.90;;;;;;5023920;28;20467;-57
2024/01/16 02:29:09;;;;;;;12.00;6.43;;;-1.50;99.90;;;;;;5028537;28;20488;-57
2024/01/16 02:31:36;;;;;;;43.37;17.03;;;-1.60;99.90;;;;;;5016304;28;20495;-56
2024/01/16 02:34:03;;;;;;;106.80;41.23;;;-1.80;99.90;;;;;;5019851;28;20541;-56
2024/01/16 02:36:30;;;;;;;46.80;21.60;;;-1.80;99.90;;;;;;5020588;28;20473;-57
2024/01/16 02:38:57;;;;;;;78.53;33.50;;;-2.00;99.90;;;;;;5022208;28;20509;-57
2024/01/16 02:41:25;;;;;;;58.43;26.20;;;-2.10;99.90;;;;;;5026824;28;20463;-57
2024/01/16 02:43:52;;;;;;;39.87;18.37;;;-2.20;99.90;;;;;;5038811;28;20446;-56
2024/01/16 02:46:18;;;;;;;39.87;19.00;;;-2.30;99.90;;;;;;5034116;28;20462;-56
2024/01/16 02:48:45;;;;;;;26.03;13.53;;;-2.30;99.90;;;;;;5040491;28;20478;-57
2024/01/16 02:51:11;;;;;;;11.20;7.03;;;-2.30;99.90;;;;;;5038045;28;20869;-56
2024/01/16 02:53:38;;;;;;;2.63;2.20;;;-2.40;99.90;;;;;;5026292;28;20525;-56
2024/01/16 02:56:05;;;;;;;2.97;2.17;;;-2.40;99.90;;;;;;5023883;28;20545;-57
2024/01/16 02:58:33;;;;;;;3.90;2.10;;;-2.50;99.90;;;;;;5020313;28;20534;-57
2024/01/16 03:00:59;;;;;;;4.53;2.50;;;-2.50;99.90;;;;;;5033198;28;20461;-56
2024/01/16 03:03:27;;;;;;;2.23;2.03;;;-2.50;99.90;;;;;;5029240;28;20537;-57
2024/01/16 03:05:55;;;;;;;2.53;2.00;;;-2.60;99.90;;;;;;5032301;28;20485;-56
2024/01/16 03:08:22;;;;;;;4.03;2.37;;;-2.60;99.90;;;;;;5024915;28;21786;-57
2024/01/16 03:10:49;;;;;;;2.50;1.70;;;-2.60;99.90;;;;;;5021888;28;20514;-57
2024/01/16 03:13:16;;;;;;;3.07;2.07;;;-2.60;99.90;;;;;;5024570;28;20468;-58
2024/01/16 03:15:43;;;;;;;6.70;2.30;;;-2.60;99.90;;;;;;5035044;28;20529;-57
2024/01/16 03:18:11;;;;;;;5.60;2.77;;;-2.60;99.90;;;;;;5037032;28;20469;-57
2024/01/16 03:20:37;;;;;;;4.30;3.00;;;-2.50;99.90;;;;;;5029416;28;20465;-57
2024/01/16 03:23:05;;;;;;;6.00;2.17;;;-2.50;99.90;;;;;;5034941;28;20516;-56
2024/01/16 03:25:32;;;;;;;4.70;2.50;;;-2.40;99.90;;;;;;5028522;28;20458;-57
2024/01/16 03:27:58;;;;;;;3.17;2.13;;;-2.30;99.90;;;;;;5021491;28;20846;-57
2024/01/16 03:30:25;;;;;;;5.20;2.80;;;-2.30;99.90;;;;;;5018759;28;20535;-57
2024/01/16 03:32:53;;;;;;;3.90;2.80;;;-2.30;99.90;;;;;;5018576;28;22038;-57
2024/01/16 03:35:19;;;;;;;2.83;1.93;;;-2.20;99.90;;;;;;5027089;28;20487;-53
2024/01/16 03:37:47;;;;;;;3.10;2.10;;;-2.20;99.90;;;;;;5024748;28;21072;-52
2024/01/16 03:40:13;;;;;;;4.73;2.33;;;-2.20;99.90;;;;;;5018811;28;20991;-52
2024/01/16 03:42:40;;;;;;;3.00;2.67;;;-2.10;99.90;;;;;;5027199;28;20467;-52
2024/01/16 03:45:07;;;;;;;4.43;2.70;;;-2.10;99.90;;;;;;5013127;28;20553;-53
2024/01/16 03:47:34;;;;;;;3.73;2.77;;;-2.00;99.90;;;;;;5017040;28;20966;-51
2024/01/16 03:50:02;;;;;;;5.07;2.23;;;-2.00;99.90;;;;;;5036167;28;20449;-52
2024/01/16 03:52:29;;;;;;;9.60;2.70;;;-2.00;99.90;;;;;;5029497;28;20439;-53
2024/01/16 03:54:55;;;;;;;2.13;1.97;;;-2.00;99.90;;;;;;5021100;28;20558;-52
2024/01/16 03:57:22;;;;;;;2.50;2.17;;;-2.00;99.90;;;;;;5019803;28;20517;-51
2024/01/16 03:59:48;;;;;;;2.10;2.00;;;-1.90;99.90;;;;;;5034001;28;20933;-53
2024/01/16 04:02:15;;;;;;;7.27;2.87;;;-1.90;99.90;;;;;;5019402;28;20951;-53
2024/01/16 04:04:41;;;;;;;4.30;2.00;;;-1.80;99.90;;;;;;5034006;28;20803;-53
2024/01/16 04:07:09;;;;;;;2.10;1.90;;;-1.80;99.90;;;;;;5040538;28;20520;-52
2024/01/16 04:09:36;;;;;;;2.37;1.93;;;-1.80;99.90;;;;;;5029946;28;20464;-52
2024/01/16 04:12:02;;;;;;;3.23;1.87;;;-1.80;99.90;;;;;;5025764;28;20434;-52
2024/01/16 04:14:29;;;;;;;2.00;1.90;;;-1.80;99.90;;;;;;5028914;28;20487;-53
2024/01/16 04:16:55;;;;;;;4.20;2.10;;;-1.80;99.90;;;;;;5020158;28;20538;-52
2024/01/16 04:19:22;;;;;;;2.87;2.00;;;-1.90;99.90;;;;;;5016970;28;20452;-52
2024/01/16 04:21:49;;;;;;;5.37;2.60;;;-1.90;99.90;;;;;;5030598;28;20443;-53
2024/01/16 04:24:16;;;;;;;3.57;1.97;;;-1.90;99.90;;;;;;5023134;28;20484;-53
2024/01/16 04:26:43;;;;;;;2.37;2.17;;;-1.90;99.90;;;;;;5023890;28;20467;-53
2024/01/16 04:29:12;;;;;;;3.33;2.30;;;-2.00;99.90;;;;;;5027950;28;20529;-52
2024/01/16 04:31:41;;;;;;;3.23;2.30;;;-2.00;99.90;;;;;;5031059;28;20546;-52
2024/01/16 04:34:07;;;;;;;3.23;2.23;;;-2.00;99.90;;;;;;5019864;28;20531;-53
2024/01/16 04:36:34;;;;;;;3.07;2.60;;;-1.90;99.90;;;;;;5012949;28;20455;-51
2024/01/16 04:39:00;;;;;;;4.40;1.90;;;-2.00;99.90;;;;;;5020337;28;20498;-52
2024/01/16 04:41:28;;;;;;;3.40;2.87;;;-1.90;99.90;;;;;;5017058;28;20455;-53
2024/01/16 04:43:55;;;;;;;4.00;2.47;;;-1.90;99.90;;;;;;5024048;28;20443;-54
2024/01/16 04:46:22;;;;;;;2.00;1.90;;;-1.90;99.90;;;;;;5026259;28;20468;-53
2024/01/16 04:48:49;;;;;;;2.53;1.70;;;-1.80;99.90;;;;;;5037537;28;20463;-53
2024/01/16 04:51:15;;;;;;;2.83;2.50;;;-1.80;99.90;;;;;;5028458;28;20461;-54
2024/01/16 04:53:42;;;;;;;5.90;2.17;;;-1.80;99.90;;;;;;5015877;28;20448;-53
2024/01/16 04:56:09;;;;;;;2.30;1.63;;;-1.90;99.90;;;;;;5029182;28;20545;-53
2024/01/16 04:58:36;;;;;;;3.90;2.23;;;-1.90;99.90;;;;;;5020255;28;20495;-53
2024/01/16 05:01:03;;;;;;;2.03;1.93;;;-1.90;99.90;;;;;;5036435;28;20446;-53
2024/01/16 05:03:30;;;;;;;2.80;2.30;;;-1.90;99.90;;;;;;5027055;28;20540;-54
2024/01/16 05:05:56;;;;;;;3.73;2.40;;;-1.90;99.90;;;;;;5029102;28;20497;-52
2024/01/16 05:08:24;;;;;;;3.13;1.73;;;-2.00;99.90;;;;;;5018494;28;20507;-53
2024/01/16 05:10:50;;;;;;;2.30;2.10;;;-2.00;99.90;;;;;;5021484;28;20466;-53
2024/01/16 05:13:17;;;;;;;4.70;2.23;;;-1.90;99.90;;;;;;5025181;28;20664;-54
2024/01/16 05:15:45;;;;;;;2.60;1.80;;;-1.90;99.90;;;;;;5033188;28;20481;-52
2024/01/16 05:18:11;;;;;;;1.80;1.70;;;-1.80;99.90;;;;;;5043529;28;20471;-54
2024/01/16 05:20:38;;;;;;;1.60;1.50;;;-1.90;99.90;;;;;;5042069;28;20532;-53
2024/01/16 05:23:04;;;;;;;3.17;2.30;;;-1.80;99.90;;;;;;5015908;28;20460;-53
2024/01/16 05:25:31;;;;;;;2.90;1.90;;;-1.80;99.90;;;;;;5018223;28;20488;-53
2024/01/16 05:27:58;;;;;;;2.23;1.90;;;-1.80;99.90;;;;;;5017757;28;20525;-53
2024/01/16 05:30:24;;;;;;;2.13;1.93;;;-1.80;99.90;;;;;;5017726;28;20502;-53
2024/01/16 05:32:52;;;;;;;3.17;2.10;;;-1.90;99.90;;;;;;5019315;28;20889;-53
2024/01/16 05:35:19;;;;;;;3.60;2.50;;;-1.80;99.90;;;;;;5025910;28;20482;-52
2024/01/16 05:37:46;;;;;;;2.90;2.23;;;-1.80;99.90;;;;;;5021618;28;20987;-53
2024/01/16 05:40:12;;;;;;;4.20;2.37;;;-1.80;99.90;;;;;;5026651;28;21032;-53
2024/01/16 05:42:39;;;;;;;5.03;2.10;;;-1.80;99.90;;;;;;5028383;28;20479;-53
2024/01/16 05:45:07;;;;;;;5.43;2.93;;;-1.80;99.90;;;;;;5024091;28;21155;-53
2024/01/16 05:47:33;;;;;;;2.50;2.30;;;-1.80;99.90;;;;;;5027844;28;20520;-54
2024/01/16 05:50:01;;;;;;;3.07;2.57;;;-1.80;99.90;;;;;;5024285;28;20466;-53
2024/01/16 05:52:28;;;;;;;2.60;2.40;;;-1.80;99.90;;;;;;5027056;28;20439;-54
2024/01/16 05:54:57;;;;;;;3.20;2.43;;;-1.80;99.90;;;;;;5037021;28;20477;-53
2024/01/16 05:57:23;;;;;;;2.70;2.43;;;-1.80;99.90;;;;;;5021696;28;20503;-53
2024/01/16 05:59:50;;;;;;;3.00;2.70;;;-1.80;99.90;;;;;;5021747;28;20881;-54
2024/01/16 06:02:17;;;;;;;5.10;2.40;;;-1.80;99.90;;;;;;5022790;28;20784;-53
2024/01/16 06:04:43;;;;;;;7.27;2.53;;;-1.80;99.90;;;;;;5021041;28;20436;-52
2024/01/16 06:07:11;;;;;;;3.83;2.70;;;-1.80;99.90;;;;;;5033877;28;20497;-52
2024/01/16 06:09:39;;;;;;;4.77;2.77;;;-1.80;99.90;;;;;;5028853;28;20447;-52
2024/01/16 06:12:07;;;;;;;2.93;2.50;;;-1.80;99.90;;;;;;5024133;28;20450;-52
2024/01/16 06:14:34;;;;;;;3.80;2.70;;;-1.80;99.90;;;;;;5032918;28;20442;-51
2024/01/16 06:17:03;;;;;;;3.30;3.00;;;-1.90;99.90;;;;;;5034090;28;20473;-54
2024/01/16 06:19:29;;;;;;;3.50;2.83;;;-1.80;99.90;;;;;;5038856;28;20880;-52
2024/01/16 06:21:56;;;;;;;6.83;3.30;;;-1.90;99.90;;;;;;5032576;28;20446;-52
2024/01/16 06:24:24;;;;;;;4.77;2.60;;;-1.90;99.90;;;;;;5027270;28;20447;-53
2024/01/16 06:26:50;;;;;;;5.33;3.30;;;-1.90;99.90;;;;;;5028426;28;20435;-52
2024/01/16 06:29:17;;;;;;;3.27;2.50;;;-1.90;99.90;;;;;;5023588;28;20444;-53
2024/01/16 06:31:43;;;;;;;3.17;2.80;;;-1.90;99.90;;;;;;5032506;28;20452;-53
2024/01/16 06:34:10;;;;;;;4.73;3.13;;;-1.90;99.90;;;;;;5037830;28;20443;-54
2024/01/16 06:36:36;;;;;;;5.70;3.30;;;-1.90;99.90;;;;;;5028273;28;20487;-53
2024/01/16 06:39:03;;;;;;;5.50;3.60;;;-1.90;99.90;;;;;;5037940;28;20492;-54
2024/01/16 06:41:31;;;;;;;6.50;3.97;;;-1.90;99.90;;;;;;5032204;28;20523;-53
2024/01/16 06:43:57;;;;;;;4.83;3.20;;;-1.90;99.90;;;;;;5029292;28;20949;-53
2024/01/16 06:46:25;;;;;;;4.03;3.63;;;-1.90;99.90;;;;;;5021270;28;20474;-52
2024/01/16 06:48:51;;;;;;;3.77;3.47;;;-1.90;99.90;;;;;;5021979;28;21038;-52
2024/01/16 06:51:18;;;;;;;7.40;3.77;;;-1.80;99.90;;;;;;5034616;28;20852;-52
2024/01/16 06:53:45;;;;;;;10.37;4.20;;;-1.80;99.90;;;;;;5045688;28;20495;-56
2024/01/16 06:56:12;;;;;;;4.00;3.70;;;-1.90;99.90;;;;;;5031557;28;20466;-52
2024/01/16 06:58:39;;;;;;;3.10;2.90;;;-1.80;99.90;;;;;;5047847;28;21220;-54
2024/01/16 07:01:07;;;;;;;4.60;2.90;;;-1.80;99.90;;;;;;5029587;28;20489;-52
2024/01/16 07:03:34;;;;;;;3.67;2.83;;;-1.80;99.90;;;;;;5024501;28;20482;-53
2024/01/16 07:06:00;;;;;;;4.97;3.30;;;-1.80;99.90;;;;;;5025643;28;20485;-52
2024/01/16 07:08:27;;;;;;;6.70;2.63;;;-1.80;99.90;;;;;;5020818;28;20572;-52
2024/01/16 07:10:53;;;;;;;3.57;2.83;;;-1.70;99.90;;;;;;5033375;28;20458;-52
2024/01/16 07:13:20;;;;;;;3.90;2.90;;;-1.80;99.90;;;;;;5027667;28;20459;-53
2024/01/16 07:15:48;;;;;;;7.60;3.23;;;-1.90;99.90;;;;;;5032441;28;20475;-53
2024/01/16 07:18:15;;;;;;;4.30;3.43;;;-2.00;99.90;;;;;;5032017;28;20478;-52
2024/01/16 07:20:41;;;;;;;4.50;3.40;;;-2.00;99.90;;;;;;5028599;28;20467;-53
2024/01/16 07:23:08;;;;;;;6.23;3.30;;;-2.10;99.90;;;;;;5027861;28;20492;-54
2024/01/16 07:25:34;;;;;;;7.50;3.10;;;-2.10;99.90;;;;;;5025135;28;20521;-52
2024/01/16 07:28:01;;;;;;;8.60;5.60;;;-2.10;99.90;;;;;;5031036;28;20536;-55
2024/01/16 07:30:28;;;;;;;3.80;3.40;;;-2.10;99.90;;;;;;5035575;28;20478;-53
2024/01/16 07:32:55;;;;;;;4.50;3.30;;;-2.10;99.90;;;;;;5037713;28;20512;-52
2024/01/16 07:35:22;;;;;;;3.70;3.00;;;-2.10;99.90;;;;;;5027004;28;20544;-52
2024/01/16 07:37:48;;;;;;;6.57;3.10;;;-2.00;99.90;;;;;;5019236;28;20482;-52
2024/01/16 07:40:16;;;;;;;4.70;2.90;;;-2.00;99.90;;;;;;5024054;28;20488;-53
2024/01/16 07:42:43;;;;;;;3.40;2.47;;;-1.90;99.90;;;;;;5030006;28;20471;-51
2024/01/16 07:45:10;;;;;;;6.83;2.63;;;-1.80;99.90;;;;;;5025520;28;20458;-53
2024/01/16 07:47:37;;;;;;;5.40;2.97;;;-1.80;99.90;;;;;;5027753;28;20482;-53
2024/01/16 07:50:06;;;;;;;3.80;2.60;;;-1.70;99.90;;;;;;5026346;28;20462;-53
2024/01/16 07:52:33;;;;;;;3.40;2.57;;;-1.70;99.90;;;;;;5029052;28;21025;-52
2024/01/16 07:54:59;;;;;;;4.60;2.93;;;-1.60;99.90;;;;;;5032115;28;20462;-53
2024/01/16 07:57:26;;;;;;;6.57;3.10;;;-1.60;99.90;;;;;;5023008;28;20544;-53
2024/01/16 07:59:52;;;;;;;4.10;3.30;;;-1.60;99.90;;;;;;5028280;28;20509;-53
2024/01/16 08:02:19;;;;;;;9.57;3.63;;;-1.50;99.90;;;;;;5015695;28;20572;-53
2024/01/16 08:04:45;;;;;;;5.37;3.67;;;-1.50;99.90;;;;;;5023189;28;20499;-52
2024/01/16 08:07:13;;;;;;;3.57;3.10;;;-1.50;99.90;;;;;;5029035;28;20535;-53
2024/01/16 08:09:40;;;;;;;5.77;3.50;;;-1.50;99.90;;;;;;5021223;28;20866;-53
2024/01/16 08:12:07;;;;;;;5.97;3.07;;;-1.40;99.90;;;;;;5023297;28;20543;-52
2024/01/16 08:14:34;;;;;;;3.93;2.60;;;-1.30;99.90;;;;;;5025770;28;20460;-52
2024/01/16 08:17:01;;;;;;;5.10;3.27;;;-1.30;99.90;;;;;;5034386;28;20521;-53
2024/01/16 08:19:27;;;;;;;6.03;3.70;;;-1.30;99.90;;;;;;5019395;28;20462;-53
2024/01/16 08:21:54;;;;;;;3.63;3.17;;;-1.30;99.90;;;;;;5026060;28;20518;-52
2024/01/16 08:24:22;;;;;;;4.33;3.43;;;-1.30;99.90;;;;;;5028432;28;20478;-52
2024/01/16 08:26:49;;;;;;;3.97;3.57;;;-1.50;99.90;;;;;;5025835;28;20463;-52
2024/01/16 08:29:16;;;;;;;7.47;4.07;;;-1.40;99.90;;;;;;5028416;28;20463;-51
2024/01/16 08:31:42;;;;;;;4.37;3.53;;;-1.40;99.90;;;;;;5022987;28;20458;-54
2024/01/16 08:34:09;;;;;;;5.40;3.20;;;-1.30;99.90;;;;;;5017880;28;20495;-52
2024/01/16 08:36:35;;;;;;;3.37;3.17;;;-1.30;99.90;;;;;;5027910;28;20483;-53
2024/01/16 08:39:02;;;;;;;5.87;3.40;;;-1.20;99.90;;;;;;5033222;28;20513;-52
2024/01/16 08:41:30;;;;;;;3.00;2.80;;;-1.10;99.90;;;;;;5024945;28;20521;-52
2024/01/16 08:43:57;;;;;;;2.73;2.53;;;-1.00;99.90;;;;;;5026728;28;20496;-52
2024/01/16 08:46:23;;;;;;;4.77;2.77;;;-0.80;99.90;;;;;;5030682;28;20455;-52
2024/01/16 08:48:50;;;;;;;3.63;2.87;;;-0.90;99.90;;;;;;5026662;28;20507;-52
2024/01/16 08:51:16;;;;;;;3.40;3.10;;;-0.90;99.90;;;;;;5022004;28;20463;-53
2024/01/16 08:53:43;;;;;;;3.43;3.13;;;-0.90;99.90;;;;;;5022876;28;20974;-52
2024/01/16 08:56:12;;;;;;;4.90;3.50;;;-0.80;99.90;;;;;;5024712;28;20576;-52
2024/01/16 08:58:40;;;;;;;5.40;3.70;;;-0.80;99.90;;;;;;5021253;28;20889;-57
2024/01/16 09:01:06;;;;;;;5.80;3.97;;;-0.70;99.90;;;;;;5027824;28;20454;-56
2024/01/16 09:03:34;;;;;;;4.80;4.23;;;-0.60;99.90;;;;;;5018647;28;20973;-57
2024/01/16 09:06:00;;;;;;;4.83;3.83;;;-0.60;99.90;;;;;;5026146;28;20512;-58
2024/01/16 09:08:27;;;;;;;5.73;3.97;;;-0.60;99.90;;;;;;5022239;28;20541;-57
2024/01/16 09:10:54;;;;;;;6.70;3.30;;;-0.60;99.90;;;;;;5028115;28;20509;-58
2024/01/16 09:13:23;;;;;;;3.90;3.50;;;-0.50;99.90;;;;;;5023541;28;20493;-58
2024/01/16 09:15:51;;;;;;;4.00;2.90;;;-0.50;99.90;;;;;;5020840;28;20873;-58
2024/01/16 09:18:17;;;;;;;5.90;3.60;;;-0.50;99.90;;;;;;5024884;28;20486;-58
2024/01/16 09:20:44;;;;;;;4.43;3.57;;;-0.60;99.90;;;;;;5026131;28;20496;-59
2024/01/16 09:23:10;;;;;;;3.87;3.57;;;-0.60;99.90;;;;;;5023982;28;20489;-58
2024/01/16 09:25:37;;;;;;;3.67;3.30;;;-0.50;99.90;;;;;;5024459;28;20455;-58
2024/01/16 09:28:04;;;;;;;4.70;4.30;;;-0.40;99.90;;;;;;5017053;28;20491;-57
2024/01/16 09:30:33;;;;;;;6.30;4.40;;;-0.40;99.90;;;;;;5025793;28;20514;-57
2024/01/16 09:33:01;;;;;;;4.57;3.93;;;-0.40;99.90;;;;;;5023674;28;20458;-57
2024/01/16 09:35:27;;;;;;;6.17;3.90;;;-0.40;99.90;;;;;;5024731;28;20463;-57
2024/01/16 09:37:54;;;;;;;7.87;4.93;;;-0.30;99.90;;;;;;5018809;28;20487;-57
2024/01/16 09:40:21;;;;;;;5.53;4.50;;;-0.40;99.90;;;;;;5025087;28;20454;-57
2024/01/16 09:42:49;;;;;;;3.83;3.33;;;-0.30;99.90;;;;;;5021288;28;20531;-57
2024/01/16 09:45:21;;;;;;;5.77;4.23;;;-0.40;99.90;;;;;;5016411;28;20471;-58
2024/01/16 09:47:50;;;;;;;5.13;4.63;;;-0.40;99.90;;;;;;5021304;28;20482;-57
2024/01/16 09:50:19;;;;;;;4.30;3.90;;;-0.40;99.90;;;;;;5022230;28;20588;-57
2024/01/16 09:52:46;;;;;;;4.27;4.07;;;-0.40;99.90;;;;;;5019062;28;20463;-57
2024/01/16 09:55:13;;;;;;;5.80;3.80;;;-0.30;99.90;;;;;;5023226;28;20956;-57
2024/01/16 09:57:41;;;;;;;5.47;4.07;;;-0.30;99.90;;;;;;5026432;28;20870;-58
2024/01/16 10:00:11;;;;;;;4.17;3.40;;;-0.30;99.90;;;;;;5030558;28;20975;-58
2024/01/16 10:02:39;;;;;;;4.43;4.03;;;-0.30;99.90;;;;;;5018879;28;20464;-58
2024/01/16 10:05:06;;;;;;;7.70;3.87;;;-0.30;99.90;;;;;;5022727;28;21063;-57
2024/01/16 10:07:34;;;;;;;4.90;4.27;;;-0.20;99.90;;;;;;5023902;28;20543;-58
2024/01/16 10:10:01;;;;;;;7.17;5.43;;;-0.20;99.90;;;;;;5024356;28;20513;-58
2024/01/16 10:12:28;;;;;;;6.60;4.90;;;-0.10;99.90;;;;;;5026938;28;20447;-58
2024/01/16 10:14:56;;;;;;;8.90;5.40;;;-0.10;99.90;;;;;;5026552;28;20479;-58
2024/01/16 10:17:23;;;;;;;7.10;5.07;;;0.00;99.90;;;;;;5024554;28;20493;-58
2024/01/16 10:19:50;;;;;;;9.77;5.70;;;0.00;99.90;;;;;;5027067;28;20467;-58
2024/01/16 10:22:21;;;;;;;10.30;5.73;;;0.10;99.90;;;;;;5042101;28;20462;-58
2024/01/16 10:24:49;;;;;;;6.47;5.57;;;0.20;99.90;;;;;;5019275;28;21099;-58
2024/01/16 10:27:17;;;;;;;5.30;4.80;;;0.10;99.90;;;;;;5022238;28;20528;-58
2024/01/16 10:29:56;;;;;;;8.60;5.67;;;0.20;99.90;;;;;;5023451;28;20455;-57
2024/01/16 10:32:29;;;;;;;6.97;4.67;;;0.30;99.90;;;;;;5020270;28;20465;-58
2024/01/16 10:35:06;;;;;;;10.67;4.87;;;0.50;99.90;;;;;;5022870;28;20463;-58
2024/01/16 10:37:42;;;;;;;4.67;4.27;;;0.60;99.90;;;;;;5026953;28;20486;-58
2024/01/16 10:40:10;;;;;;;6.30;4.50;;;0.70;99.90;;;;;;5024886;28;20467;-58
2024/01/16 10:42:37;;;;;;;7.40;4.97;;;0.50;99.90;;;;;;5031068;28;20467;-58
2024/01/16 10:45:05;;;;;;;5.23;4.27;;;0.50;99.90;;;;;;5027873;28;20960;-58
2024/01/16 10:47:34;;;;;;;4.77;4.20;;;0.50;99.90;;;;;;5027586;28;20514;-58
2024/01/16 10:50:01;;;;;;;6.60;4.47;;;0.40;99.90;;;;;;5028964;28;20463;-58
2024/01/16 10:52:29;;;;;;;6.23;4.80;;;0.40;99.90;;;;;;5030201;28;20520;-59
2024/01/16 10:55:00;;;;;;;5.17;4.77;;;0.40;99.90;;;;;;5044790;28;20656;-58
2024/01/16 10:57:32;;;;;;;5.20;4.40;;;0.40;99.90;;;;;;5043541;28;20509;-58
2024/01/16 11:00:04;;;;;;;5.50;5.00;;;0.30;99.90;;;;;;5035050;28;20464;-57
2024/01/16 11:02:50;;;;;;;7.27;4.70;;;0.40;99.90;;;;;;5044709;28;20525;-61
2024/01/16 11:05:18;;;;;;;6.03;5.40;;;0.40;99.90;;;;;;5030967;28;20536;-58
2024/01/16 11:07:45;;;;;;;6.53;5.13;;;0.30;99.90;;;;;;5027848;28;20486;-59
2024/01/16 11:10:12;;;;;;;10.17;5.70;;;0.30;99.90;;;;;;5028124;28;20483;-58
2024/01/16 11:12:42;;;;;;;7.67;4.90;;;0.30;99.90;;;;;;5034876;28;20898;-58
2024/01/16 11:15:12;;;;;;;5.07;4.63;;;0.30;99.90;;;;;;5030408;28;20508;-58
2024/01/16 11:17:39;;;;;;;6.47;4.80;;;0.20;99.90;;;;;;5033350;28;20493;-58
2024/01/16 11:20:09;;;;;;;8.17;4.57;;;0.20;99.90;;;;;;5027072;28;20462;-57
2024/01/16 11:22:40;;;;;;;7.03;5.67;;;0.30;99.90;;;;;;5023251;28;20906;-57
2024/01/16 11:25:12;;;;;;;5.40;4.90;;;0.30;99.90;;;;;;5030522;28;20466;-57
2024/01/16 11:27:41;;;;;;;5.77;5.07;;;0.30;99.90;;;;;;5025952;28;20510;-57
2024/01/16 11:30:10;;;;;;;7.27;5.13;;;0.30;99.90;;;;;;5026676;28;20502;-57
2024/01/16 11:32:40;;;;;;;5.83;5.23;;;0.30;99.90;;;;;;5022712;28;20463;-59
2024/01/16 11:35:07;;;;;;;7.10;5.00;;;0.30;1.40;;;;;;5027489;28;20459;-57
2024/01/16 11:37:36;;;;;;;5.73;4.20;;;0.30;99.90;;;;;;5024045;28;20483;-58
2024/01/16 11:40:26;;;;;;;5.30;4.40;;;0.30;99.90;;;;;;5026064;28;20467;-57
2024/01/16 11:42:55;;;;;;;8.00;5.33;;;0.40;99.90;;;;;;5020228;28;20852;-57
2024/01/16 11:45:50;;;;;;;9.23;4.90;;;0.40;99.90;;;;;;5020833;28;20482;-58
2024/01/16 11:48:17;;;;;;;8.17;4.57;;;0.40;99.90;;;;;;5022571;28;20489;-57
2024/01/16 11:50:44;;;;;;;6.03;4.17;;;0.50;99.90;;;;;;5028145;28;20462;-57
2024/01/16 11:53:11;;;;;;;4.13;2.83;;;0.50;99.90;;;;;;5029550;28;20446;-58
2024/01/16 11:55:59;;;;;;;4.43;3.23;;;0.50;99.90;;;;;;5025450;28;20467;-59
2024/01/16 11:58:44;;;;;;;4.63;3.57;;;0.50;99.90;;;;;;5025586;28;20546;-57
2024/01/16 12:01:11;;;;;;;4.00;2.97;;;0.40;99.90;;;;;;5024447;28;20829;-59
2024/01/16 12:03:38;;;;;;;6.00;3.20;;;0.30;99.90;;;;;;5020725;28;20472;-58
2024/01/16 12:06:06;;;;;;;8.47;4.13;;;0.30;99.90;;;;;;5020476;28;20486;-57
2024/01/16 12:08:33;;;;;;;5.23;3.10;;;0.30;99.90;;;;;;5020434;28;20482;-58
2024/01/16 12:11:00;;;;;;;3.97;3.10;;;0.40;99.90;;;;;;5017892;28;20994;-57
2024/01/16 12:13:27;;;;;;;6.00;3.10;;;0.30;99.90;;;;;;5021622;28;20440;-57
2024/01/16 12:16:01;;;;;;;3.63;2.83;;;0.30;99.90;;;;;;5013428;28;20965;-57
2024/01/16 12:18:28;;;;;;;3.47;3.07;;;0.30;99.90;;;;;;5019559;28;20523;-57
2024/01/16 12:20:55;;;;;;;8.60;4.53;;;0.30;99.90;;;;;;5033998;28;20828;-57
2024/01/16 12:23:23;;;;;;;5.53;3.00;;;0.30;99.90;;;;;;5020327;28;20455;-57
2024/01/16 12:25:53;;;;;;;9.13;4.17;;;0.30;99.90;;;;;;5026684;28;20542;-57
2024/01/16 12:28:21;;;;;;;9.87;4.07;;;0.30;99.90;;;;;;5030788;28;20459;-58
2024/01/16 12:30:51;;;;;;;8.80;4.40;;;0.30;99.90;;;;;;5015945;28;20988;-58
2024/01/16 12:33:23;;;;;;;10.40;4.60;;;0.30;99.90;;;;;;5032876;28;20959;-58
2024/01/16 12:35:50;;;;;;;8.80;3.63;;;0.30;99.90;;;;;;5024072;28;20505;-57
2024/01/16 12:38:18;;;;;;;6.83;3.60;;;0.30;99.90;;;;;;5013343;28;20484;-58
2024/01/16 12:40:47;;;;;;;10.83;4.63;;;0.30;99.90;;;;;;5025375;28;20456;-58
2024/01/16 12:43:14;;;;;;;7.90;4.07;;;0.30;99.90;;;;;;5025939;28;20953;-56
2024/01/16 12:45:41;;;;;;;10.60;4.00;;;0.30;99.90;;;;;;5022179;28;20496;-57
2024/01/16 12:48:07;;;;;;;7.50;4.50;;;0.30;99.90;;;;;;5016415;28;21027;-57
2024/01/16 12:50:36;;;;;;;5.27;3.90;;;0.30;99.90;;;;;;5023717;28;20537;-57